sensor_id;sensor_type;location;lat;lon;timestamp;pressure;altitude;pressure_sealevel;temperature;humidity
17785;BME280;9016;53.582;10.062;2023-04-15T00:00:55;100891.97;;;10.76;79.77
17785;BME280;9016;53.582;10.062;2023-04-15T00:03:24;100896.75;;;10.85;79.54
17785;BME280;9016;53.582;10.062;2023-04-15T00:05:52;100885.13;;;10.86;78.98
17785;BME280;9016;53.582;10.062;2023-04-15T00:08:22;100887.56;;;10.75;79.66
17785;BME280;9016;53.582;10.062;2023-04-15T00:10:50;100885.75;;;10.76;79.87
17785;BME280;9016;53.582;10.062;2023-04-15T00:13:18;100885.09;;;10.72;80.44
17785;BME280;9016;53.582;10.062;2023-04-15T00:15:46;100879.56;;;10.75;80.68
17785;BME280;9016;53.582;10.062;2023-04-15T00:18:14;100876.75;;;10.78;81.04
17785;BME280;9016;53.582;10.062;2023-04-15T00:20:42;100877.13;;;10.86;80.69
17785;BME280;9016;53.582;10.062;2023-04-15T00:23:10;100875.06;;;10.62;81.24
17785;BME280;9016;53.582;10.062;2023-04-15T00:25:40;100875.22;;;10.59;81.95
17785;BME280;9016;53.582;10.062;2023-04-15T00:28:08;100879.56;;;10.75;82.16
17785;BME280;9016;53.582;10.062;2023-04-15T00:30:36;100872.88;;;10.68;82.40
17785;BME280;9016;53.582;10.062;2023-04-15T00:33:04;100872.97;;;10.67;82.24
17785;BME280;9016;53.582;10.062;2023-04-15T00:35:33;100872.66;;;10.57;83.60
17785;BME280;9016;53.582;10.062;2023-04-15T00:38:02;100879.72;;;10.58;83.08
17785;BME280;9016;53.582;10.062;2023-04-15T00:40:30;100873.03;;;10.51;83.64
17785;BME280;9016;53.582;10.062;2023-04-15T00:43:00;100869.75;;;10.46;84.80
17785;BME280;9016;53.582;10.062;2023-04-15T00:45:28;100872.16;;;10.51;84.35
17785;BME280;9016;53.582;10.062;2023-04-15T00:47:57;100869.63;;;10.63;83.96
17785;BME280;9016;53.582;10.062;2023-04-15T00:50:25;100859.75;;;10.65;84.48
17785;BME280;9016;53.582;10.062;2023-04-15T00:52:53;100865.75;;;10.69;84.44
17785;BME280;9016;53.582;10.062;2023-04-15T00:55:21;100872.22;;;10.65;83.26
17785;BME280;9016;53.582;10.062;2023-04-15T00:57:50;100875.22;;;10.59;84.61
17785;BME280;9016;53.582;10.062;2023-04-15T01:00:20;100875.66;;;10.67;85.35
17785;BME280;9016;53.582;10.062;2023-04-15T01:02:49;100876.31;;;10.70;84.25
17785;BME280;9016;53.582;10.062;2023-04-15T01:05:17;100874.78;;;10.66;84.43
17785;BME280;9016;53.582;10.062;2023-04-15T01:07:46;100878.22;;;10.68;85.14
17785;BME280;9016;53.582;10.062;2023-04-15T01:10:14;100869.00;;;10.74;84.14
17785;BME280;9016;53.582;10.062;2023-04-15T01:12:43;100873.13;;;10.79;84.29
17785;BME280;9016;53.582;10.062;2023-04-15T01:15:11;100873.31;;;10.76;84.75
17785;BME280;9016;53.582;10.062;2023-04-15T01:17:40;100865.66;;;10.70;84.66
17785;BME280;9016;53.582;10.062;2023-04-15T01:20:09;100870.91;;;10.72;84.90
17785;BME280;9016;53.582;10.062;2023-04-15T01:22:38;100863.09;;;10.69;85.15
17785;BME280;9016;53.582;10.062;2023-04-15T01:25:09;100855.69;;;10.74;85.03
17785;BME280;9016;53.582;10.062;2023-04-15T01:27:40;100857.34;;;10.61;85.01
17785;BME280;9016;53.582;10.062;2023-04-15T01:30:09;100858.13;;;10.63;85.75
17785;BME280;9016;53.582;10.062;2023-04-15T01:32:38;100851.53;;;10.54;86.07
17785;BME280;9016;53.582;10.062;2023-04-15T01:35:06;100851.63;;;10.37;87.80
17785;BME280;9016;53.582;10.062;2023-04-15T01:37:35;100853.41;;;10.52;88.25
17785;BME280;9016;53.582;10.062;2023-04-15T01:40:04;100844.13;;;10.59;87.11
17785;BME280;9016;53.582;10.062;2023-04-15T01:42:34;100843.09;;;10.62;86.83
17785;BME280;9016;53.582;10.062;2023-04-15T01:45:05;100845.16;;;10.57;88.12
17785;BME280;9016;53.582;10.062;2023-04-15T01:47:34;100834.91;;;10.65;87.15
17785;BME280;9016;53.582;10.062;2023-04-15T01:50:02;100830.25;;;10.68;87.24
17785;BME280;9016;53.582;10.062;2023-04-15T01:52:30;100833.53;;;10.73;86.84
17785;BME280;9016;53.582;10.062;2023-04-15T01:54:58;100827.88;;;10.64;86.75
17785;BME280;9016;53.582;10.062;2023-04-15T01:57:26;100834.81;;;10.66;86.59
17785;BME280;9016;53.582;10.062;2023-04-15T01:59:54;100833.69;;;10.70;86.75
17785;BME280;9016;53.582;10.062;2023-04-15T02:02:24;100832.47;;;10.76;87.15
17785;BME280;9016;53.582;10.062;2023-04-15T02:04:52;100826.19;;;10.77;86.77
17785;BME280;9016;53.582;10.062;2023-04-15T02:07:20;100824.16;;;10.66;87.14
17785;BME280;9016;53.582;10.062;2023-04-15T02:09:48;100825.31;;;10.62;86.95
17785;BME280;9016;53.582;10.062;2023-04-15T02:12:16;100818.25;;;10.61;87.85
17785;BME280;9016;53.582;10.062;2023-04-15T02:14:44;100815.38;;;10.64;87.56
17785;BME280;9016;53.582;10.062;2023-04-15T02:17:12;100807.91;;;10.71;87.75
17785;BME280;9016;53.582;10.062;2023-04-15T02:19:42;100808.94;;;10.68;87.41
17785;BME280;9016;53.582;10.062;2023-04-15T02:22:10;100816.66;;;10.73;87.38
17785;BME280;9016;53.582;10.062;2023-04-15T02:24:43;100815.78;;;10.72;87.81
17785;BME280;9016;53.582;10.062;2023-04-15T02:27:15;100816.56;;;10.74;87.83
17785;BME280;9016;53.582;10.062;2023-04-15T02:29:44;100818.88;;;10.80;87.38
17785;BME280;9016;53.582;10.062;2023-04-15T02:32:12;100822.69;;;10.90;87.05
17785;BME280;9016;53.582;10.062;2023-04-15T02:34:42;100822.88;;;10.87;86.82
17785;BME280;9016;53.582;10.062;2023-04-15T02:37:11;100828.13;;;10.89;86.42
17785;BME280;9016;53.582;10.062;2023-04-15T02:39:40;100828.13;;;10.89;86.47
17785;BME280;9016;53.582;10.062;2023-04-15T02:42:07;100826.47;;;10.86;87.13
17785;BME280;9016;53.582;10.062;2023-04-15T02:44:35;100829.34;;;10.83;88.00
17785;BME280;9016;53.582;10.062;2023-04-15T02:47:04;100828.09;;;10.75;87.99
17785;BME280;9016;53.582;10.062;2023-04-15T02:49:32;100815.25;;;10.81;87.96
17785;BME280;9016;53.582;10.062;2023-04-15T02:52:02;100823.56;;;10.91;87.69
17785;BME280;9016;53.582;10.062;2023-04-15T02:54:32;100814.78;;;10.89;87.37
17785;BME280;9016;53.582;10.062;2023-04-15T02:57:00;100818.22;;;10.91;87.32
17785;BME280;9016;53.582;10.062;2023-04-15T02:59:29;100820.53;;;10.97;86.95
17785;BME280;9016;53.582;10.062;2023-04-15T03:01:57;100818.31;;;11.04;86.43
17785;BME280;9016;53.582;10.062;2023-04-15T03:04:26;100817.19;;;11.08;87.07
17785;BME280;9016;53.582;10.062;2023-04-15T03:06:55;100829.41;;;11.12;86.81
17785;BME280;9016;53.582;10.062;2023-04-15T03:09:25;100820.13;;;11.03;86.70
17785;BME280;9016;53.582;10.062;2023-04-15T03:11:53;100816.34;;;11.07;86.81
17785;BME280;9016;53.582;10.062;2023-04-15T03:14:22;100821.41;;;11.12;87.07
17785;BME280;9016;53.582;10.062;2023-04-15T03:16:50;100820.34;;;11.14;85.70
17785;BME280;9016;53.582;10.062;2023-04-15T03:19:18;100824.22;;;11.09;86.53
17785;BME280;9016;53.582;10.062;2023-04-15T03:21:46;100816.72;;;11.15;86.96
17785;BME280;9016;53.582;10.062;2023-04-15T03:24:14;100819.75;;;11.09;86.69
17785;BME280;9016;53.582;10.062;2023-04-15T03:26:44;100809.66;;;11.14;87.08
17785;BME280;9016;53.582;10.062;2023-04-15T03:29:12;100813.09;;;11.16;86.62
17785;BME280;9016;53.582;10.062;2023-04-15T03:31:40;100814.47;;;11.23;87.23
17785;BME280;9016;53.582;10.062;2023-04-15T03:34:11;100804.72;;;11.22;86.85
17785;BME280;9016;53.582;10.062;2023-04-15T03:36:39;100817.13;;;11.23;86.25
17785;BME280;9016;53.582;10.062;2023-04-15T03:39:07;100812.47;;;11.27;86.18
17785;BME280;9016;53.582;10.062;2023-04-15T03:41:35;100817.50;;;11.31;86.06
17785;BME280;9016;53.582;10.062;2023-04-15T03:44:04;100808.06;;;11.40;86.23
17785;BME280;9016;53.582;10.062;2023-04-15T03:46:32;100816.47;;;11.34;85.88
17785;BME280;9016;53.582;10.062;2023-04-15T03:49:01;100801.31;;;11.34;86.80
17785;BME280;9016;53.582;10.062;2023-04-15T03:51:29;100807.88;;;11.29;86.28
17785;BME280;9016;53.582;10.062;2023-04-15T03:53:58;100813.97;;;11.31;86.69
17785;BME280;9016;53.582;10.062;2023-04-15T03:56:26;100807.41;;;11.08;87.50
17785;BME280;9016;53.582;10.062;2023-04-15T03:58:54;100815.88;;;11.15;87.67
17785;BME280;9016;53.582;10.062;2023-04-15T04:01:23;100824.63;;;11.17;88.25
17785;BME280;9016;53.582;10.062;2023-04-15T04:03:52;100821.19;;;11.15;88.57
17785;BME280;9016;53.582;10.062;2023-04-15T04:06:20;100812.34;;;11.14;88.70
17785;BME280;9016;53.582;10.062;2023-04-15T04:08:49;100815.69;;;11.18;88.06
17785;BME280;9016;53.582;10.062;2023-04-15T04:11:16;100811.09;;;11.20;87.51
17785;BME280;9016;53.582;10.062;2023-04-15T04:13:44;100813.03;;;11.18;87.97
17785;BME280;9016;53.582;10.062;2023-04-15T04:16:14;100819.78;;;11.23;89.09
17785;BME280;9016;53.582;10.062;2023-04-15T04:18:44;100827.09;;;11.20;88.46
17785;BME280;9016;53.582;10.062;2023-04-15T04:21:12;100816.16;;;11.24;87.75
17785;BME280;9016;53.582;10.062;2023-04-15T04:23:42;100825.88;;;11.25;88.20
17785;BME280;9016;53.582;10.062;2023-04-15T04:26:10;100825.03;;;11.25;88.87
17785;BME280;9016;53.582;10.062;2023-04-15T04:28:38;100826.25;;;11.33;88.70
17785;BME280;9016;53.582;10.062;2023-04-15T04:31:06;100833.78;;;11.41;88.22
17785;BME280;9016;53.582;10.062;2023-04-15T04:33:34;100830.66;;;11.34;86.68
17785;BME280;9016;53.582;10.062;2023-04-15T04:36:04;100835.41;;;11.15;88.02
17785;BME280;9016;53.582;10.062;2023-04-15T04:38:32;100824.25;;;11.23;88.58
17785;BME280;9016;53.582;10.062;2023-04-15T04:41:00;100823.75;;;11.16;88.87
17785;BME280;9016;53.582;10.062;2023-04-15T04:43:28;100835.75;;;11.09;89.21
17785;BME280;9016;53.582;10.062;2023-04-15T04:45:57;100825.00;;;11.11;89.57
17785;BME280;9016;53.582;10.062;2023-04-15T04:48:25;100823.59;;;11.19;89.65
17785;BME280;9016;53.582;10.062;2023-04-15T04:50:53;100822.63;;;11.06;90.50
17785;BME280;9016;53.582;10.062;2023-04-15T04:53:23;100820.44;;;11.13;90.25
17785;BME280;9016;53.582;10.062;2023-04-15T04:55:51;100820.25;;;11.16;90.07
17785;BME280;9016;53.582;10.062;2023-04-15T04:58:19;100815.88;;;11.15;90.30
17785;BME280;9016;53.582;10.062;2023-04-15T05:00:47;100820.47;;;11.27;90.24
17785;BME280;9016;53.582;10.062;2023-04-15T05:03:15;100825.59;;;11.30;89.75
17785;BME280;9016;53.582;10.062;2023-04-15T05:05:43;100822.66;;;11.34;89.82
17785;BME280;9016;53.582;10.062;2023-04-15T05:08:11;100817.22;;;11.36;89.10
17785;BME280;9016;53.582;10.062;2023-04-15T05:10:41;100818.44;;;11.44;88.92
17785;BME280;9016;53.582;10.062;2023-04-15T05:13:09;100820.44;;;11.41;88.71
17785;BME280;9016;53.582;10.062;2023-04-15T05:15:37;100823.13;;;11.41;88.72
17785;BME280;9016;53.582;10.062;2023-04-15T05:18:07;100827.31;;;11.45;89.25
17785;BME280;9016;53.582;10.062;2023-04-15T05:20:35;100827.41;;;11.43;89.25
17785;BME280;9016;53.582;10.062;2023-04-15T05:23:03;100825.50;;;11.45;88.77
17785;BME280;9016;53.582;10.062;2023-04-15T05:25:31;100824.81;;;11.42;88.81
17785;BME280;9016;53.582;10.062;2023-04-15T05:28:01;100830.66;;;11.34;90.03
17785;BME280;9016;53.582;10.062;2023-04-15T05:30:29;100831.03;;;11.42;90.31
17785;BME280;9016;53.582;10.062;2023-04-15T05:32:57;100828.66;;;11.38;89.52
17785;BME280;9016;53.582;10.062;2023-04-15T05:35:25;100829.31;;;11.41;90.11
17785;BME280;9016;53.582;10.062;2023-04-15T05:37:53;100828.56;;;11.39;89.88
17785;BME280;9016;53.582;10.062;2023-04-15T05:40:21;100831.88;;;11.43;89.05
17785;BME280;9016;53.582;10.062;2023-04-15T05:42:49;100835.31;;;11.45;90.32
17785;BME280;9016;53.582;10.062;2023-04-15T05:45:19;100825.88;;;11.39;89.92
17785;BME280;9016;53.582;10.062;2023-04-15T05:47:47;100837.59;;;11.37;90.21
17785;BME280;9016;53.582;10.062;2023-04-15T05:50:16;100839.78;;;11.44;89.70
17785;BME280;9016;53.582;10.062;2023-04-15T05:52:44;100837.88;;;11.46;89.85
17785;BME280;9016;53.582;10.062;2023-04-15T05:55:12;100843.03;;;11.49;89.67
17785;BME280;9016;53.582;10.062;2023-04-15T05:57:40;100843.78;;;11.51;89.11
17785;BME280;9016;53.582;10.062;2023-04-15T06:00:10;100842.53;;;11.57;88.85
17785;BME280;9016;53.582;10.062;2023-04-15T06:02:40;100844.56;;;11.39;89.54
17785;BME280;9016;53.582;10.062;2023-04-15T06:05:09;100846.16;;;11.28;91.07
17785;BME280;9016;53.582;10.062;2023-04-15T06:07:37;100851.03;;;11.35;91.36
17785;BME280;9016;53.582;10.062;2023-04-15T06:10:06;100852.56;;;11.39;91.07
17785;BME280;9016;53.582;10.062;2023-04-15T06:12:35;100855.91;;;11.43;91.08
17785;BME280;9016;53.582;10.062;2023-04-15T06:15:03;100852.66;;;11.38;91.38
17785;BME280;9016;53.582;10.062;2023-04-15T06:17:32;100868.75;;;11.36;90.96
17785;BME280;9016;53.582;10.062;2023-04-15T06:20:01;100865.41;;;11.33;90.99
17785;BME280;9016;53.582;10.062;2023-04-15T06:22:29;100870.38;;;11.39;91.62
17785;BME280;9016;53.582;10.062;2023-04-15T06:24:57;100866.94;;;11.37;91.26
17785;BME280;9016;53.582;10.062;2023-04-15T06:27:25;100870.56;;;11.36;91.83
17785;BME280;9016;53.582;10.062;2023-04-15T06:29:53;100877.97;;;11.31;91.88
17785;BME280;9016;53.582;10.062;2023-04-15T06:32:23;100872.47;;;11.34;91.95
17785;BME280;9016;53.582;10.062;2023-04-15T06:34:51;100873.13;;;11.23;92.13
17785;BME280;9016;53.582;10.062;2023-04-15T06:37:21;100871.09;;;11.13;93.32
17785;BME280;9016;53.582;10.062;2023-04-15T06:39:49;100875.88;;;11.22;92.78
17785;BME280;9016;53.582;10.062;2023-04-15T06:42:17;100880.44;;;11.20;93.02
17785;BME280;9016;53.582;10.062;2023-04-15T06:44:45;100877.59;;;11.23;93.17
17785;BME280;9016;53.582;10.062;2023-04-15T06:47:13;100875.16;;;11.48;93.33
17785;BME280;9016;53.582;10.062;2023-04-15T06:49:41;100876.88;;;11.49;91.45
17785;BME280;9016;53.582;10.062;2023-04-15T06:52:10;100883.06;;;11.63;90.78
17785;BME280;9016;53.582;10.062;2023-04-15T06:54:40;100884.88;;;11.63;89.91
17785;BME280;9016;53.582;10.062;2023-04-15T06:57:08;100889.97;;;11.67;90.48
17785;BME280;9016;53.582;10.062;2023-04-15T06:59:36;100895.34;;;11.52;88.77
17785;BME280;9016;53.582;10.062;2023-04-15T07:02:04;100893.94;;;11.46;89.94
17785;BME280;9016;53.582;10.062;2023-04-15T07:04:32;100897.25;;;11.36;89.32
17785;BME280;9016;53.582;10.062;2023-04-15T07:07:01;100899.16;;;11.34;90.73
17785;BME280;9016;53.582;10.062;2023-04-15T07:09:29;100892.59;;;11.53;90.53
17785;BME280;9016;53.582;10.062;2023-04-15T07:11:59;100897.25;;;11.64;89.30
17785;BME280;9016;53.582;10.062;2023-04-15T07:14:27;100908.28;;;11.44;88.06
17785;BME280;9016;53.582;10.062;2023-04-15T07:16:55;100902.97;;;11.44;89.04
17785;BME280;9016;53.582;10.062;2023-04-15T07:19:23;100904.13;;;11.54;89.31
17785;BME280;9016;53.582;10.062;2023-04-15T07:21:52;100900.97;;;11.47;89.79
17785;BME280;9016;53.582;10.062;2023-04-15T07:24:20;100903.16;;;11.55;88.93
17785;BME280;9016;53.582;10.062;2023-04-15T07:26:52;100896.34;;;11.65;89.70
17785;BME280;9016;53.582;10.062;2023-04-15T07:29:22;100909.88;;;11.62;87.87
17785;BME280;9016;53.582;10.062;2023-04-15T07:31:51;100896.41;;;11.63;88.66
17785;BME280;9016;53.582;10.062;2023-04-15T07:34:19;100916.72;;;11.66;87.81
17785;BME280;9016;53.582;10.062;2023-04-15T07:36:49;100919.56;;;11.63;88.14
17785;BME280;9016;53.582;10.062;2023-04-15T07:39:17;100911.59;;;11.77;88.12
17785;BME280;9016;53.582;10.062;2023-04-15T07:41:47;100915.44;;;11.73;88.50
17785;BME280;9016;53.582;10.062;2023-04-15T07:44:15;100923.91;;;11.79;88.38
17785;BME280;9016;53.582;10.062;2023-04-15T07:46:44;100920.38;;;11.79;87.45
17785;BME280;9016;53.582;10.062;2023-04-15T07:49:12;100923.13;;;11.91;87.78
17785;BME280;9016;53.582;10.062;2023-04-15T07:51:41;100926.75;;;11.90;86.71
17785;BME280;9016;53.582;10.062;2023-04-15T07:54:09;100927.03;;;11.86;87.01
17785;BME280;9016;53.582;10.062;2023-04-15T07:56:38;100927.91;;;11.86;86.33
17785;BME280;9016;53.582;10.062;2023-04-15T07:59:06;100926.47;;;11.95;86.93
17785;BME280;9016;53.582;10.062;2023-04-15T08:01:35;100929.88;;;11.97;87.08
17785;BME280;9016;53.582;10.062;2023-04-15T08:04:04;100930.06;;;12.22;85.80
17785;BME280;9016;53.582;10.062;2023-04-15T08:06:32;100927.03;;;12.00;85.90
17785;BME280;9016;53.582;10.062;2023-04-15T08:09:00;100939.63;;;11.98;86.34
17785;BME280;9016;53.582;10.062;2023-04-15T08:11:29;100933.50;;;12.10;86.29
17785;BME280;9016;53.582;10.062;2023-04-15T08:13:57;100938.66;;;12.13;85.59
17785;BME280;9016;53.582;10.062;2023-04-15T08:16:25;100949.19;;;12.02;86.33
17785;BME280;9016;53.582;10.062;2023-04-15T08:18:55;100949.63;;;12.23;85.77
17785;BME280;9016;53.582;10.062;2023-04-15T08:21:24;100952.09;;;12.26;85.73
17785;BME280;9016;53.582;10.062;2023-04-15T08:23:53;100950.28;;;12.26;84.93
17785;BME280;9016;53.582;10.062;2023-04-15T08:26:22;100955.81;;;12.23;84.82
17785;BME280;9016;53.582;10.062;2023-04-15T08:28:50;100954.66;;;12.27;85.36
17785;BME280;9016;53.582;10.062;2023-04-15T08:31:18;100944.34;;;12.35;84.51
17785;BME280;9016;53.582;10.062;2023-04-15T08:33:47;100948.44;;;12.41;84.45
17785;BME280;9016;53.582;10.062;2023-04-15T08:36:18;100950.25;;;12.40;83.65
17785;BME280;9016;53.582;10.062;2023-04-15T08:38:48;100962.13;;;12.22;85.08
17785;BME280;9016;53.582;10.062;2023-04-15T08:41:20;100952.53;;;12.46;84.70
17785;BME280;9016;53.582;10.062;2023-04-15T08:43:52;100962.03;;;12.64;84.78
17785;BME280;9016;53.582;10.062;2023-04-15T08:46:22;100959.25;;;12.66;84.46
17785;BME280;9016;53.582;10.062;2023-04-15T08:48:50;100949.88;;;12.73;84.07
17785;BME280;9016;53.582;10.062;2023-04-15T08:51:19;100954.06;;;12.77;82.84
17785;BME280;9016;53.582;10.062;2023-04-15T08:53:52;100962.75;;;12.80;83.90
17785;BME280;9016;53.582;10.062;2023-04-15T08:56:24;100961.22;;;12.76;83.12
17785;BME280;9016;53.582;10.062;2023-04-15T08:58:53;100961.28;;;12.89;83.03
17785;BME280;9016;53.582;10.062;2023-04-15T09:01:21;100967.97;;;12.82;81.79
17785;BME280;9016;53.582;10.062;2023-04-15T09:03:49;100974.19;;;12.82;82.69
17785;BME280;9016;53.582;10.062;2023-04-15T09:06:19;100976.09;;;12.94;83.13
17785;BME280;9016;53.582;10.062;2023-04-15T09:08:48;100974.44;;;12.92;82.61
17785;BME280;9016;53.582;10.062;2023-04-15T09:11:18;100977.97;;;13.07;81.96
17785;BME280;9016;53.582;10.062;2023-04-15T09:13:46;100979.16;;;12.88;82.58
17785;BME280;9016;53.582;10.062;2023-04-15T09:16:14;100982.50;;;13.19;82.40
17785;BME280;9016;53.582;10.062;2023-04-15T09:18:43;100988.03;;;13.16;81.22
17785;BME280;9016;53.582;10.062;2023-04-15T09:21:12;100976.28;;;13.18;80.43
17785;BME280;9016;53.582;10.062;2023-04-15T09:23:53;100984.34;;;13.31;80.85
17785;BME280;9016;53.582;10.062;2023-04-15T09:26:31;100984.38;;;13.56;79.14
17785;BME280;9016;53.582;10.062;2023-04-15T09:29:06;100992.13;;;13.73;78.26
17785;BME280;9016;53.582;10.062;2023-04-15T09:31:35;100980.75;;;13.94;78.79
17785;BME280;9016;53.582;10.062;2023-04-15T09:34:03;100978.94;;;14.33;78.06
17785;BME280;9016;53.582;10.062;2023-04-15T09:36:50;100979.63;;;14.60;73.18
17785;BME280;9016;53.582;10.062;2023-04-15T09:39:20;100981.78;;;14.55;75.39
17785;BME280;9016;53.582;10.062;2023-04-15T09:44:42;100988.06;;;14.66;72.57
17785;BME280;9016;53.582;10.062;2023-04-15T09:47:26;100983.41;;;14.81;72.59
17785;BME280;9016;53.582;10.062;2023-04-15T09:49:55;100992.72;;;15.12;72.65
17785;BME280;9016;53.582;10.062;2023-04-15T09:52:23;100999.72;;;15.02;71.50
17785;BME280;9016;53.582;10.062;2023-04-15T09:54:52;100991.69;;;15.02;71.13
17785;BME280;9016;53.582;10.062;2023-04-15T09:57:22;100986.94;;;15.29;71.11
17785;BME280;9016;53.582;10.062;2023-04-15T09:59:51;100994.59;;;15.46;69.62
17785;BME280;9016;53.582;10.062;2023-04-15T10:02:19;100989.25;;;15.57;69.44
17785;BME280;9016;53.582;10.062;2023-04-15T10:04:48;100990.97;;;15.58;70.43
17785;BME280;9016;53.582;10.062;2023-04-15T10:07:18;100992.69;;;15.70;68.91
17785;BME280;9016;53.582;10.062;2023-04-15T10:09:48;100989.19;;;15.80;67.24
17785;BME280;9016;53.582;10.062;2023-04-15T10:12:16;100986.28;;;15.95;67.89
17785;BME280;9016;53.582;10.062;2023-04-15T10:14:47;100990.31;;;16.22;68.70
17785;BME280;9016;53.582;10.062;2023-04-15T10:17:21;100991.31;;;16.32;66.38
17785;BME280;9016;53.582;10.062;2023-04-15T10:19:52;101002.59;;;16.48;64.88
17785;BME280;9016;53.582;10.062;2023-04-15T10:22:23;100996.44;;;16.24;65.37
17785;BME280;9016;53.582;10.062;2023-04-15T10:24:53;101003.41;;;16.27;65.82
17785;BME280;9016;53.582;10.062;2023-04-15T10:27:22;101002.06;;;16.43;65.77
17785;BME280;9016;53.582;10.062;2023-04-15T10:29:50;101004.25;;;16.27;65.57
17785;BME280;9016;53.582;10.062;2023-04-15T10:32:20;101003.16;;;16.41;65.66
17785;BME280;9016;53.582;10.062;2023-04-15T10:34:53;100999.16;;;16.57;65.22
17785;BME280;9016;53.582;10.062;2023-04-15T10:37:22;101007.44;;;16.76;63.79
17785;BME280;9016;53.582;10.062;2023-04-15T10:39:59;101000.59;;;16.39;63.95
17785;BME280;9016;53.582;10.062;2023-04-15T10:42:33;101008.28;;;16.44;65.12
17785;BME280;9016;53.582;10.062;2023-04-15T10:45:01;101005.72;;;16.42;64.69
17785;BME280;9016;53.582;10.062;2023-04-15T10:47:31;101011.22;;;16.74;63.89
17785;BME280;9016;53.582;10.062;2023-04-15T10:50:01;101008.38;;;16.87;62.08
17785;BME280;9016;53.582;10.062;2023-04-15T10:52:29;101003.84;;;16.98;62.64
17785;BME280;9016;53.582;10.062;2023-04-15T10:55:12;101003.75;;;16.89;61.80
17785;BME280;9016;53.582;10.062;2023-04-15T10:57:43;101001.75;;;17.02;61.83
17785;BME280;9016;53.582;10.062;2023-04-15T11:00:13;101000.34;;;17.18;61.76
17785;BME280;9016;53.582;10.062;2023-04-15T11:02:46;101005.69;;;17.61;61.94
17785;BME280;9016;53.582;10.062;2023-04-15T11:05:22;101002.34;;;17.89;60.38
17785;BME280;9016;53.582;10.062;2023-04-15T11:07:56;101003.72;;;17.63;60.04
17785;BME280;9016;53.582;10.062;2023-04-15T11:10:51;101025.59;;;17.49;59.21
17785;BME280;9016;53.582;10.062;2023-04-15T11:13:27;101023.84;;;17.16;57.57
17785;BME280;9016;53.582;10.062;2023-04-15T11:15:58;101020.59;;;17.02;57.58
17785;BME280;9016;53.582;10.062;2023-04-15T11:18:31;101029.59;;;16.80;58.07
17785;BME280;9016;53.582;10.062;2023-04-15T11:21:04;101025.78;;;16.71;58.77
17785;BME280;9016;53.582;10.062;2023-04-15T11:23:35;101030.94;;;16.74;58.34
17785;BME280;9016;53.582;10.062;2023-04-15T11:26:05;101025.44;;;16.54;59.17
17785;BME280;9016;53.582;10.062;2023-04-15T11:28:36;101029.81;;;16.66;59.78
17785;BME280;9016;53.582;10.062;2023-04-15T11:31:10;101036.44;;;16.51;59.90
17785;BME280;9016;53.582;10.062;2023-04-15T11:33:46;101043.75;;;16.16;59.36
17785;BME280;9016;53.582;10.062;2023-04-15T11:36:14;101049.50;;;16.33;60.13
17785;BME280;9016;53.582;10.062;2023-04-15T11:38:46;101051.97;;;16.47;60.16
17785;BME280;9016;53.582;10.062;2023-04-15T11:41:14;101042.94;;;16.48;59.99
17785;BME280;9016;53.582;10.062;2023-04-15T11:43:47;101057.81;;;16.41;60.09
17785;BME280;9016;53.582;10.062;2023-04-15T11:46:15;101061.13;;;16.45;60.18
17785;BME280;9016;53.582;10.062;2023-04-15T11:48:45;101061.03;;;16.68;58.82
17785;BME280;9016;53.582;10.062;2023-04-15T11:51:14;101065.91;;;16.86;58.90
17785;BME280;9016;53.582;10.062;2023-04-15T11:53:43;101060.34;;;17.09;57.69
17785;BME280;9016;53.582;10.062;2023-04-15T11:56:16;101065.38;;;17.03;56.62
17785;BME280;9016;53.582;10.062;2023-04-15T11:58:46;101059.63;;;17.07;56.79
17785;BME280;9016;53.582;10.062;2023-04-15T12:01:16;101067.25;;;16.91;56.34
17785;BME280;9016;53.582;10.062;2023-04-15T12:03:47;101063.84;;;16.78;57.55
17785;BME280;9016;53.582;10.062;2023-04-15T12:06:17;101071.03;;;16.89;56.65
17785;BME280;9016;53.582;10.062;2023-04-15T12:09:00;101072.66;;;16.69;56.87
17785;BME280;9016;53.582;10.062;2023-04-15T12:11:34;101077.25;;;16.34;57.85
17785;BME280;9016;53.582;10.062;2023-04-15T12:14:05;101080.06;;;16.32;58.60
17785;BME280;9016;53.582;10.062;2023-04-15T12:16:44;101079.91;;;16.12;59.36
17785;BME280;9016;53.582;10.062;2023-04-15T12:19:18;101090.75;;;15.99;60.38
17785;BME280;9016;53.582;10.062;2023-04-15T12:21:49;101093.16;;;15.91;60.06
17785;BME280;9016;53.582;10.062;2023-04-15T12:24:20;101105.31;;;16.08;59.49
17785;BME280;9016;53.582;10.062;2023-04-15T12:26:50;101105.03;;;16.00;59.95
17785;BME280;9016;53.582;10.062;2023-04-15T12:29:19;101101.50;;;15.99;59.58
17785;BME280;9016;53.582;10.062;2023-04-15T12:31:53;101110.22;;;15.79;59.15
17785;BME280;9016;53.582;10.062;2023-04-15T12:34:30;101109.47;;;16.01;58.20
17785;BME280;9016;53.582;10.062;2023-04-15T12:36:59;101112.31;;;16.21;58.70
17785;BME280;9016;53.582;10.062;2023-04-15T12:39:29;101125.53;;;16.24;58.70
17785;BME280;9016;53.582;10.062;2023-04-15T12:41:58;101122.91;;;16.01;57.76
17785;BME280;9016;53.582;10.062;2023-04-15T12:44:27;101122.69;;;16.15;57.32
17785;BME280;9016;53.582;10.062;2023-04-15T12:46:58;101121.28;;;15.98;57.09
17785;BME280;9016;53.582;10.062;2023-04-15T12:49:29;101129.00;;;16.03;56.94
17785;BME280;9016;53.582;10.062;2023-04-15T12:51:59;101135.59;;;15.99;57.76
17785;BME280;9016;53.582;10.062;2023-04-15T12:54:29;101137.03;;;16.26;57.29
17785;BME280;9016;53.582;10.062;2023-04-15T12:56:58;101137.31;;;16.11;56.72
17785;BME280;9016;53.582;10.062;2023-04-15T12:59:27;101137.56;;;16.08;56.49
17785;BME280;9016;53.582;10.062;2023-04-15T13:01:55;101131.69;;;16.03;56.10
17785;BME280;9016;53.582;10.062;2023-04-15T13:04:23;101123.50;;;16.04;55.90